NDF38 LROP-LRTR
Flight info
| Callsign | NDF38 |
|---|---|
| Flight time | 0h 46m |
| Altitude | 30000 |
| Route | SOKRU1K SOKRU DCT OXDOC DCT NEKUL NEKUL2A |
| Aircraft | A320/M-SDE3FGHIRWY/LB1 |
Departure
| Time | 2026-05-07 20:08 |
|---|---|
| Airport | Bucharest Henri Coandă International Airport (LROP) |
Arrival
| Time | 2026-05-07 20:54 |
|---|---|
| Airport | Timișoara Traian Vuia International Airport (LRTR) |
| Time | Latitude | Longitude | Altitude | Speed | Heading |
|---|---|---|---|---|---|
| 2026-05-07 19:34 | 44.57015 | 26.08080 | 322 ft | 0 kts | 354° |
| 2026-05-07 19:59 | 44.57010 | 26.08081 | 322 ft | 3 kts | 354° |
| 2026-05-07 19:59 | 44.56989 | 26.08084 | 320 ft | 3 kts | 354° |
| 2026-05-07 20:00 | 44.56969 | 26.08087 | 322 ft | 3 kts | 354° |
| 2026-05-07 20:00 | 44.56952 | 26.08089 | 321 ft | 3 kts | 351° |
| 2026-05-07 20:00 | 44.56938 | 26.08096 | 322 ft | 3 kts | 295° |
| 2026-05-07 20:00 | 44.56935 | 26.08119 | 321 ft | 3 kts | 264° |
| 2026-05-07 20:01 | 44.56937 | 26.08139 | 320 ft | 0 kts | 264° |
| 2026-05-07 20:02 | 44.56937 | 26.08137 | 320 ft | 1 kts | 264° |
| 2026-05-07 20:03 | 44.56935 | 26.08117 | 322 ft | 3 kts | 264° |
| 2026-05-07 20:03 | 44.56932 | 26.08077 | 321 ft | 5 kts | 263° |
| 2026-05-07 20:03 | 44.56924 | 26.08017 | 322 ft | 7 kts | 247° |
| 2026-05-07 20:03 | 44.56877 | 26.07984 | 322 ft | 9 kts | 180° |
| 2026-05-07 20:04 | 44.56806 | 26.07992 | 322 ft | 11 kts | 175° |
| 2026-05-07 20:04 | 44.56742 | 26.07938 | 322 ft | 13 kts | 248° |
| 2026-05-07 20:04 | 44.56717 | 26.07805 | 321 ft | 15 kts | 256° |
| 2026-05-07 20:04 | 44.56686 | 26.07687 | 323 ft | 6 kts | 230° |
| 2026-05-07 20:05 | 44.56644 | 26.07664 | 323 ft | 8 kts | 181° |
| 2026-05-07 20:05 | 44.56584 | 26.07674 | 323 ft | 10 kts | 172° |
| 2026-05-07 20:05 | 44.56574 | 26.07676 | 322 ft | 0 kts | 171° |
| 2026-05-07 20:06 | 44.56566 | 26.07677 | 323 ft | 2 kts | 171° |
| 2026-05-07 20:06 | 44.56544 | 26.07682 | 322 ft | 4 kts | 171° |
| 2026-05-07 20:06 | 44.56507 | 26.07689 | 321 ft | 6 kts | 174° |
| 2026-05-07 20:06 | 44.56473 | 26.07725 | 323 ft | 7 kts | 105° |
| 2026-05-07 20:07 | 44.56474 | 26.07803 | 322 ft | 9 kts | 85° |
| 2026-05-07 20:07 | 44.56494 | 26.08062 | 324 ft | 59 kts | 84° |
| 2026-05-07 20:07 | 44.56561 | 26.08945 | 321 ft | 119 kts | 84° |
| 2026-05-07 20:07 | 44.56666 | 26.10324 | 326 ft | 164 kts | 84° |
| 2026-05-07 20:08 | 44.56813 | 26.11989 | 719 ft | 177 kts | 83° |
| 2026-05-07 20:08 | 44.56975 | 26.13720 | 1365 ft | 179 kts | 85° |
| 2026-05-07 20:08 | 44.57102 | 26.15446 | 2038 ft | 178 kts | 85° |
| 2026-05-07 20:08 | 44.57224 | 26.17221 | 2379 ft | 195 kts | 86° |
| 2026-05-07 20:09 | 44.57366 | 26.19229 | 2626 ft | 219 kts | 83° |
| 2026-05-07 20:09 | 44.57973 | 26.21281 | 2926 ft | 243 kts | 45° |
| 2026-05-07 20:09 | 44.59473 | 26.22482 | 3338 ft | 262 kts | 7° |
| 2026-05-07 20:10 | 44.62622 | 26.20452 | 4894 ft | 264 kts | 304° |
| 2026-05-07 20:10 | 44.63826 | 26.18484 | 5764 ft | 271 kts | 321° |
| 2026-05-07 20:10 | 44.65582 | 26.17439 | 6616 ft | 280 kts | 346° |
| 2026-05-07 20:10 | 44.67508 | 26.17117 | 7426 ft | 285 kts | 355° |
| 2026-05-07 20:11 | 44.69511 | 26.17053 | 8252 ft | 290 kts | 357° |
| 2026-05-07 20:11 | 44.71547 | 26.17022 | 9057 ft | 295 kts | 356° |
| 2026-05-07 20:11 | 44.73611 | 26.16896 | 9848 ft | 298 kts | 350° |
| 2026-05-07 20:11 | 44.75606 | 26.16147 | 10555 ft | 299 kts | 333° |
| 2026-05-07 20:12 | 44.77387 | 26.14565 | 10947 ft | 312 kts | 315° |
| 2026-05-07 20:12 | 44.78794 | 26.12140 | 11117 ft | 331 kts | 298° |
| 2026-05-07 20:12 | 44.80005 | 26.09261 | 11330 ft | 350 kts | 298° |
| 2026-05-07 20:12 | 44.81265 | 26.06330 | 11845 ft | 358 kts | 299° |
| 2026-05-07 20:13 | 44.82581 | 26.03323 | 12469 ft | 363 kts | 300° |
| 2026-05-07 20:13 | 44.83920 | 26.00283 | 13101 ft | 368 kts | 300° |
| 2026-05-07 20:13 | 44.85278 | 25.97204 | 13735 ft | 372 kts | 300° |
| 2026-05-07 20:13 | 44.86508 | 25.93990 | 14334 ft | 373 kts | 290° |
| 2026-05-07 20:14 | 44.87339 | 25.90520 | 14907 ft | 374 kts | 284° |
| 2026-05-07 20:14 | 44.88079 | 25.86976 | 15476 ft | 377 kts | 284° |
| 2026-05-07 20:14 | 44.88824 | 25.83416 | 16036 ft | 380 kts | 284° |
| 2026-05-07 20:14 | 44.89568 | 25.79876 | 16587 ft | 383 kts | 284° |
| 2026-05-07 20:15 | 44.90330 | 25.76255 | 17148 ft | 387 kts | 284° |
| 2026-05-07 20:15 | 44.91096 | 25.72603 | 17730 ft | 390 kts | 284° |
| 2026-05-07 20:15 | 44.91863 | 25.68920 | 18301 ft | 393 kts | 284° |
| 2026-05-07 20:15 | 44.92635 | 25.65206 | 18809 ft | 396 kts | 284° |
| 2026-05-07 20:16 | 44.93414 | 25.61469 | 19328 ft | 399 kts | 284° |
| 2026-05-07 20:16 | 44.94199 | 25.57704 | 19881 ft | 401 kts | 284° |
| 2026-05-07 20:16 | 44.94987 | 25.53916 | 20406 ft | 403 kts | 284° |
| 2026-05-07 20:16 | 44.95777 | 25.50102 | 20898 ft | 406 kts | 284° |
| 2026-05-07 20:17 | 44.96571 | 25.46260 | 21366 ft | 409 kts | 284° |
| 2026-05-07 20:17 | 44.97357 | 25.42448 | 21830 ft | 412 kts | 284° |
| 2026-05-07 20:17 | 44.98158 | 25.38548 | 22276 ft | 415 kts | 284° |
| 2026-05-07 20:17 | 44.98960 | 25.34623 | 22720 ft | 417 kts | 284° |
| 2026-05-07 20:18 | 44.99805 | 25.30690 | 23161 ft | 420 kts | 286° |
| 2026-05-07 20:18 | 45.00779 | 25.26775 | 23587 ft | 424 kts | 289° |
| 2026-05-07 20:18 | 45.01843 | 25.22875 | 23961 ft | 427 kts | 289° |
| 2026-05-07 20:18 | 45.02882 | 25.18936 | 24326 ft | 429 kts | 288° |
| 2026-05-07 20:19 | 45.03823 | 25.14989 | 24695 ft | 430 kts | 286° |
| 2026-05-07 20:19 | 45.04689 | 25.10932 | 25044 ft | 432 kts | 284° |
| 2026-05-07 20:19 | 45.05497 | 25.06833 | 25400 ft | 434 kts | 283° |
| 2026-05-07 20:19 | 45.06275 | 25.02704 | 25760 ft | 436 kts | 283° |
| 2026-05-07 20:20 | 45.07051 | 24.98551 | 26131 ft | 438 kts | 283° |
| 2026-05-07 20:20 | 45.07843 | 24.94384 | 26502 ft | 440 kts | 283° |
| 2026-05-07 20:20 | 45.08655 | 24.90200 | 26876 ft | 442 kts | 283° |
| 2026-05-07 20:20 | 45.09479 | 24.86004 | 27236 ft | 444 kts | 283° |
| 2026-05-07 20:21 | 45.10316 | 24.81779 | 27584 ft | 446 kts | 283° |
| 2026-05-07 20:21 | 45.11143 | 24.77603 | 27931 ft | 448 kts | 283° |
| 2026-05-07 20:21 | 45.11985 | 24.73342 | 28290 ft | 450 kts | 283° |
| 2026-05-07 20:21 | 45.12825 | 24.69086 | 28801 ft | 448 kts | 283° |
| 2026-05-07 20:22 | 45.13657 | 24.64845 | 29330 ft | 446 kts | 283° |
| 2026-05-07 20:22 | 45.14479 | 24.60614 | 29851 ft | 445 kts | 283° |
| 2026-05-07 20:22 | 45.15297 | 24.56381 | 30051 ft | 446 kts | 283° |
| 2026-05-07 20:23 | 45.16934 | 24.47863 | 30077 ft | 449 kts | 282° |
| 2026-05-07 20:23 | 45.18567 | 24.39366 | 30076 ft | 450 kts | 282° |
| 2026-05-07 20:24 | 45.20213 | 24.30812 | 30077 ft | 450 kts | 282° |
| 2026-05-07 20:24 | 45.21851 | 24.22245 | 30079 ft | 450 kts | 282° |
| 2026-05-07 20:25 | 45.23476 | 24.13679 | 30095 ft | 449 kts | 282° |
| 2026-05-07 20:25 | 45.25085 | 24.05181 | 30100 ft | 448 kts | 282° |
| 2026-05-07 20:26 | 45.26693 | 23.96635 | 30102 ft | 448 kts | 282° |
| 2026-05-07 20:26 | 45.28296 | 23.88092 | 30100 ft | 448 kts | 282° |
| 2026-05-07 20:27 | 45.29891 | 23.79556 | 30118 ft | 447 kts | 283° |
| 2026-05-07 20:27 | 45.31463 | 23.71107 | 30116 ft | 445 kts | 283° |
| 2026-05-07 20:28 | 45.33040 | 23.62612 | 30110 ft | 444 kts | 283° |
| 2026-05-07 20:28 | 45.34599 | 23.54134 | 30105 ft | 443 kts | 283° |
| 2026-05-07 20:29 | 45.36139 | 23.45718 | 30102 ft | 443 kts | 283° |
| 2026-05-07 20:29 | 45.37686 | 23.37236 | 30099 ft | 443 kts | 283° |
| 2026-05-07 20:30 | 45.39224 | 23.28766 | 30096 ft | 442 kts | 282° |
| 2026-05-07 20:30 | 45.40756 | 23.20290 | 30090 ft | 442 kts | 282° |
| 2026-05-07 20:31 | 45.42270 | 23.11868 | 30087 ft | 442 kts | 282° |
| 2026-05-07 20:31 | 45.43791 | 23.03391 | 30099 ft | 441 kts | 283° |
| 2026-05-07 20:32 | 45.45304 | 22.94931 | 30100 ft | 440 kts | 283° |
| 2026-05-07 20:32 | 45.46800 | 22.86484 | 30096 ft | 440 kts | 282° |
| 2026-05-07 20:33 | 45.48286 | 22.78038 | 30087 ft | 439 kts | 283° |
| 2026-05-07 20:33 | 45.49763 | 22.69654 | 30098 ft | 439 kts | 282° |
| 2026-05-07 20:34 | 45.51450 | 22.61310 | 30098 ft | 440 kts | 290° |
| 2026-05-07 20:34 | 45.54717 | 22.53910 | 30086 ft | 445 kts | 309° |
| 2026-05-07 20:35 | 45.58899 | 22.47384 | 30077 ft | 446 kts | 309° |
| 2026-05-07 20:35 | 45.63034 | 22.40868 | 30081 ft | 446 kts | 308° |
| 2026-05-07 20:36 | 45.67199 | 22.34287 | 29998 ft | 448 kts | 308° |
| 2026-05-07 20:36 | 45.69294 | 22.30980 | 29722 ft | 448 kts | 308° |
| 2026-05-07 20:36 | 45.71386 | 22.27679 | 29441 ft | 449 kts | 308° |
| 2026-05-07 20:36 | 45.73487 | 22.24359 | 29162 ft | 449 kts | 308° |
| 2026-05-07 20:37 | 45.75581 | 22.21039 | 28256 ft | 451 kts | 308° |
| 2026-05-07 20:37 | 45.77701 | 22.17670 | 27014 ft | 458 kts | 308° |
| 2026-05-07 20:37 | 45.79803 | 22.14322 | 26322 ft | 455 kts | 308° |
| 2026-05-07 20:37 | 45.81824 | 22.10893 | 25625 ft | 446 kts | 302° |
| 2026-05-07 20:38 | 45.83438 | 22.07150 | 24907 ft | 437 kts | 293° |
| 2026-05-07 20:38 | 45.84615 | 22.03175 | 24205 ft | 430 kts | 287° |
| 2026-05-07 20:38 | 45.85635 | 21.99162 | 23491 ft | 427 kts | 287° |
| 2026-05-07 20:38 | 45.86655 | 21.95177 | 22753 ft | 423 kts | 287° |
| 2026-05-07 20:39 | 45.87646 | 21.91239 | 22084 ft | 416 kts | 284° |
| 2026-05-07 20:39 | 45.88229 | 21.87252 | 21708 ft | 400 kts | 273° |
| 2026-05-07 20:39 | 45.88308 | 21.83416 | 21537 ft | 382 kts | 264° |
| 2026-05-07 20:39 | 45.87973 | 21.79674 | 21077 ft | 377 kts | 258° |
| 2026-05-07 20:40 | 45.87523 | 21.75960 | 20533 ft | 376 kts | 258° |
| 2026-05-07 20:40 | 45.87059 | 21.72220 | 20292 ft | 391 kts | 258° |
| 2026-05-07 20:40 | 45.86561 | 21.68284 | 20041 ft | 409 kts | 258° |
| 2026-05-07 20:40 | 45.86047 | 21.64236 | 19797 ft | 415 kts | 258° |
| 2026-05-07 20:41 | 45.85621 | 21.60136 | 19549 ft | 417 kts | 266° |
| 2026-05-07 20:41 | 45.86002 | 21.56011 | 19298 ft | 422 kts | 284° |
| 2026-05-07 20:41 | 45.86952 | 21.52078 | 19067 ft | 423 kts | 287° |
| 2026-05-07 20:41 | 45.87956 | 21.48110 | 18829 ft | 423 kts | 287° |
| 2026-05-07 20:42 | 45.88973 | 21.44156 | 18409 ft | 422 kts | 287° |
| 2026-05-07 20:42 | 45.89984 | 21.40233 | 17825 ft | 414 kts | 287° |
| 2026-05-07 20:42 | 45.90958 | 21.36446 | 17633 ft | 397 kts | 287° |
| 2026-05-07 20:42 | 45.91911 | 21.32699 | 16596 ft | 402 kts | 287° |
| 2026-05-07 20:43 | 45.92856 | 21.28928 | 15825 ft | 401 kts | 287° |
| 2026-05-07 20:43 | 45.93790 | 21.25175 | 15161 ft | 397 kts | 288° |
| 2026-05-07 20:43 | 45.94715 | 21.21455 | 14527 ft | 393 kts | 288° |
| 2026-05-07 20:43 | 45.95616 | 21.17826 | 13914 ft | 389 kts | 288° |
| 2026-05-07 20:44 | 45.96520 | 21.14183 | 13218 ft | 385 kts | 288° |
| 2026-05-07 20:44 | 45.97414 | 21.10577 | 12552 ft | 381 kts | 288° |
| 2026-05-07 20:44 | 45.98300 | 21.07009 | 11865 ft | 377 kts | 288° |
| 2026-05-07 20:44 | 45.99175 | 21.03482 | 11187 ft | 372 kts | 288° |
| 2026-05-07 20:45 | 46.00034 | 20.99999 | 10509 ft | 369 kts | 288° |
| 2026-05-07 20:45 | 46.00883 | 20.96543 | 9836 ft | 365 kts | 288° |
| 2026-05-07 20:45 | 46.01725 | 20.93119 | 9111 ft | 361 kts | 288° |
| 2026-05-07 20:45 | 46.02557 | 20.89734 | 8574 ft | 353 kts | 287° |
| 2026-05-07 20:46 | 46.03016 | 20.86447 | 8451 ft | 331 kts | 267° |
| 2026-05-07 20:46 | 46.02422 | 20.83378 | 8332 ft | 314 kts | 239° |
| 2026-05-07 20:46 | 46.00910 | 20.81249 | 8187 ft | 303 kts | 210° |
| 2026-05-07 20:46 | 45.98975 | 20.80202 | 8065 ft | 293 kts | 196° |
| 2026-05-07 20:47 | 45.96996 | 20.79702 | 7940 ft | 285 kts | 183° |
| 2026-05-07 20:47 | 45.95114 | 20.80425 | 7816 ft | 283 kts | 150° |
| 2026-05-07 20:47 | 45.93792 | 20.82446 | 7551 ft | 287 kts | 120° |
| 2026-05-07 20:47 | 45.93187 | 20.85195 | 7155 ft | 292 kts | 105° |
| 2026-05-07 20:48 | 45.92629 | 20.87997 | 6733 ft | 293 kts | 111° |
| 2026-05-07 20:48 | 45.91825 | 20.90697 | 6238 ft | 294 kts | 118° |
| 2026-05-07 20:48 | 45.91018 | 20.93366 | 5832 ft | 288 kts | 113° |
| 2026-05-07 20:48 | 45.90361 | 20.96024 | 5453 ft | 278 kts | 111° |
| 2026-05-07 20:49 | 45.89742 | 20.98599 | 5093 ft | 268 kts | 112° |
| 2026-05-07 20:49 | 45.89131 | 21.01078 | 4746 ft | 259 kts | 112° |
| 2026-05-07 20:49 | 45.88547 | 21.03437 | 4406 ft | 250 kts | 112° |
| 2026-05-07 20:49 | 45.87976 | 21.05742 | 4082 ft | 241 kts | 112° |
| 2026-05-07 20:50 | 45.87425 | 21.07961 | 3769 ft | 232 kts | 112° |
| 2026-05-07 20:50 | 45.86886 | 21.10134 | 3462 ft | 230 kts | 112° |
| 2026-05-07 20:50 | 45.86360 | 21.12251 | 3161 ft | 219 kts | 112° |
| 2026-05-07 20:50 | 45.85861 | 21.14262 | 2875 ft | 209 kts | 112° |
| 2026-05-07 20:51 | 45.85377 | 21.16206 | 2598 ft | 205 kts | 113° |
| 2026-05-07 20:51 | 45.84914 | 21.18067 | 2353 ft | 191 kts | 113° |
| 2026-05-07 20:51 | 45.84491 | 21.19766 | 2121 ft | 173 kts | 113° |
| 2026-05-07 20:51 | 45.84111 | 21.21294 | 1880 ft | 156 kts | 113° |
| 2026-05-07 20:52 | 45.83753 | 21.22723 | 1690 ft | 149 kts | 114° |
| 2026-05-07 20:52 | 45.83406 | 21.24110 | 1476 ft | 146 kts | 112° |
| 2026-05-07 20:52 | 45.83066 | 21.25470 | 1288 ft | 144 kts | 113° |
| 2026-05-07 20:52 | 45.82730 | 21.26811 | 1094 ft | 142 kts | 111° |
| 2026-05-07 20:53 | 45.82401 | 21.28126 | 908 ft | 140 kts | 110° |
| 2026-05-07 20:53 | 45.82076 | 21.29424 | 722 ft | 137 kts | 109° |
| 2026-05-07 20:53 | 45.81757 | 21.30698 | 543 ft | 137 kts | 109° |
| 2026-05-07 20:53 | 45.81435 | 21.31983 | 366 ft | 137 kts | 109° |
| 2026-05-07 20:54 | 45.81162 | 21.33060 | 348 ft | 76 kts | 110° |
| 2026-05-07 20:54 | 45.81071 | 21.33425 | 343 ft | 23 kts | 109° |
| 2026-05-07 20:54 | 45.80973 | 21.33563 | 343 ft | 22 kts | 188° |
| 2026-05-07 20:54 | 45.80865 | 21.33430 | 349 ft | 23 kts | 271° |
| 2026-05-07 20:55 | 45.80908 | 21.33238 | 342 ft | 18 kts | 290° |
| 2026-05-07 20:55 | 45.80954 | 21.33061 | 342 ft | 20 kts | 290° |
| 2026-05-07 20:55 | 45.81003 | 21.32865 | 348 ft | 22 kts | 289° |
| 2026-05-07 20:55 | 45.81057 | 21.32648 | 349 ft | 24 kts | 289° |
| 2026-05-07 20:56 | 45.81079 | 21.32471 | 348 ft | 17 kts | 238° |
| 2026-05-07 20:56 | 45.81058 | 21.32378 | 349 ft | 11 kts | 287° |
| 2026-05-07 20:56 | 45.81086 | 21.32265 | 347 ft | 13 kts | 291° |
| 2026-05-07 20:56 | 45.81110 | 21.32170 | 342 ft | 6 kts | 290° |
| 2026-05-07 20:57 | 45.81118 | 21.32117 | 344 ft | 5 kts | 256° |
| 2026-05-07 20:57 | 45.81095 | 21.32091 | 349 ft | 0 kts | 206° |
| 2026-05-07 20:57 | 45.81084 | 21.32084 | 345 ft | 3 kts | 202° |
| 2026-05-07 20:57 | 45.81077 | 21.32080 | 342 ft | 0 kts | 200° |
| 2026-05-07 20:58 | 45.81076 | 21.32080 | 342 ft | 0 kts | 200° |